sensor_id;sensor_type;location;lat;lon;timestamp;P1;durP1;ratioP1;P2;durP2;ratioP2
25247;SDS011;13191;47.472;11.214;2022-07-29T00:02:21;2.38;;;0.95;;
25247;SDS011;13191;47.472;11.214;2022-07-29T00:04:46;1.55;;;0.90;;
25247;SDS011;13191;47.472;11.214;2022-07-29T00:07:12;1.77;;;0.75;;
25247;SDS011;13191;47.472;11.214;2022-07-29T00:09:37;1.38;;;0.77;;
25247;SDS011;13191;47.472;11.214;2022-07-29T00:12:03;1.17;;;0.75;;
25247;SDS011;13191;47.472;11.214;2022-07-29T00:14:29;2.92;;;0.90;;
25247;SDS011;13191;47.472;11.214;2022-07-29T00:16:55;3.35;;;1.13;;
25247;SDS011;13191;47.472;11.214;2022-07-29T00:19:20;1.95;;;1.05;;
25247;SDS011;13191;47.472;11.214;2022-07-29T00:21:46;2.50;;;1.17;;
25247;SDS011;13191;47.472;11.214;2022-07-29T00:24:12;2.03;;;0.90;;
25247;SDS011;13191;47.472;11.214;2022-07-29T00:26:37;2.08;;;1.08;;
25247;SDS011;13191;47.472;11.214;2022-07-29T00:29:03;2.17;;;1.17;;
25247;SDS011;13191;47.472;11.214;2022-07-29T00:31:29;2.45;;;1.08;;
25247;SDS011;13191;47.472;11.214;2022-07-29T00:33:55;2.10;;;0.82;;
25247;SDS011;13191;47.472;11.214;2022-07-29T00:36:21;2.40;;;1.10;;
25247;SDS011;13191;47.472;11.214;2022-07-29T00:38:47;1.58;;;1.00;;
25247;SDS011;13191;47.472;11.214;2022-07-29T00:41:13;2.05;;;1.10;;
25247;SDS011;13191;47.472;11.214;2022-07-29T00:43:39;1.95;;;1.05;;
25247;SDS011;13191;47.472;11.214;2022-07-29T00:46:05;2.22;;;0.95;;
25247;SDS011;13191;47.472;11.214;2022-07-29T00:48:31;1.20;;;0.82;;
25247;SDS011;13191;47.472;11.214;2022-07-29T00:50:57;2.80;;;1.02;;
25247;SDS011;13191;47.472;11.214;2022-07-29T00:53:24;2.47;;;1.08;;
25247;SDS011;13191;47.472;11.214;2022-07-29T00:55:51;1.85;;;1.10;;
25247;SDS011;13191;47.472;11.214;2022-07-29T00:58:19;3.40;;;1.00;;
25247;SDS011;13191;47.472;11.214;2022-07-29T01:00:45;2.30;;;0.90;;
25247;SDS011;13191;47.472;11.214;2022-07-29T01:03:11;1.75;;;1.10;;
25247;SDS011;13191;47.472;11.214;2022-07-29T01:05:37;2.95;;;0.82;;
25247;SDS011;13191;47.472;11.214;2022-07-29T01:08:04;1.90;;;0.93;;
25247;SDS011;13191;47.472;11.214;2022-07-29T01:10:30;2.22;;;0.95;;
25247;SDS011;13191;47.472;11.214;2022-07-29T01:12:57;2.08;;;1.25;;
25247;SDS011;13191;47.472;11.214;2022-07-29T01:15:23;1.90;;;1.02;;
25247;SDS011;13191;47.472;11.214;2022-07-29T01:23:31;1.83;;;0.93;;
25247;SDS011;13191;47.472;11.214;2022-07-29T01:28:38;1.55;;;0.70;;
25247;SDS011;13191;47.472;11.214;2022-07-29T01:31:18;1.45;;;0.77;;
25247;SDS011;13191;47.472;11.214;2022-07-29T01:33:50;7.38;;;0.90;;
25247;SDS011;13191;47.472;11.214;2022-07-29T01:36:28;1.38;;;0.70;;
25247;SDS011;13191;47.472;11.214;2022-07-29T01:38:58;1.50;;;0.70;;
25247;SDS011;13191;47.472;11.214;2022-07-29T01:41:49;4.47;;;0.88;;
25247;SDS011;13191;47.472;11.214;2022-07-29T01:44:27;1.50;;;0.73;;
25247;SDS011;13191;47.472;11.214;2022-07-29T01:46:58;1.00;;;0.63;;
25247;SDS011;13191;47.472;11.214;2022-07-29T01:49:29;2.95;;;0.85;;
25247;SDS011;13191;47.472;11.214;2022-07-29T01:52:01;1.38;;;0.88;;
25247;SDS011;13191;47.472;11.214;2022-07-29T01:57:08;1.80;;;1.00;;
25247;SDS011;13191;47.472;11.214;2022-07-29T01:59:37;4.53;;;1.08;;
25247;SDS011;13191;47.472;11.214;2022-07-29T02:02:04;3.72;;;1.00;;
25247;SDS011;13191;47.472;11.214;2022-07-29T02:04:33;1.77;;;0.80;;
25247;SDS011;13191;47.472;11.214;2022-07-29T02:07:03;1.20;;;0.70;;
25247;SDS011;13191;47.472;11.214;2022-07-29T02:09:31;1.00;;;0.68;;
25247;SDS011;13191;47.472;11.214;2022-07-29T02:11:59;2.58;;;1.00;;
25247;SDS011;13191;47.472;11.214;2022-07-29T02:14:28;1.98;;;1.00;;
25247;SDS011;13191;47.472;11.214;2022-07-29T02:17:05;1.15;;;0.60;;
25247;SDS011;13191;47.472;11.214;2022-07-29T02:19:32;0.70;;;0.50;;
25247;SDS011;13191;47.472;11.214;2022-07-29T02:22:01;1.58;;;0.90;;
25247;SDS011;13191;47.472;11.214;2022-07-29T02:24:27;1.60;;;1.00;;
25247;SDS011;13191;47.472;11.214;2022-07-29T02:26:55;1.83;;;0.85;;
25247;SDS011;13191;47.472;11.214;2022-07-29T02:29:23;1.33;;;0.80;;
25247;SDS011;13191;47.472;11.214;2022-07-29T10:22:27;3.67;;;1.30;;
25247;SDS011;13191;47.472;11.214;2022-07-29T10:54:11;1.60;;;0.90;;
25247;SDS011;13191;47.472;11.214;2022-07-29T10:56:37;2.20;;;1.35;;
25247;SDS011;13191;47.472;11.214;2022-07-29T11:01:47;2.15;;;1.30;;
25247;SDS011;13191;47.472;11.214;2022-07-29T11:04:13;3.33;;;1.60;;
25247;SDS011;13191;47.472;11.214;2022-07-29T11:09:29;3.55;;;1.60;;
25247;SDS011;13191;47.472;11.214;2022-07-29T11:11:55;2.38;;;1.42;;
25247;SDS011;13191;47.472;11.214;2022-07-29T11:17:22;2.75;;;1.55;;
25247;SDS011;13191;47.472;11.214;2022-07-29T11:19:48;2.42;;;1.30;;
25247;SDS011;13191;47.472;11.214;2022-07-29T11:22:31;1.67;;;1.00;;
25247;SDS011;13191;47.472;11.214;2022-07-29T11:25:14;2.03;;;1.13;;
25247;SDS011;13191;47.472;11.214;2022-07-29T11:27:41;1.35;;;0.90;;
25247;SDS011;13191;47.472;11.214;2022-07-29T11:30:07;2.00;;;1.27;;
25247;SDS011;13191;47.472;11.214;2022-07-29T11:32:41;5.88;;;1.42;;
25247;SDS011;13191;47.472;11.214;2022-07-29T11:43:46;2.60;;;1.20;;
25247;SDS011;13191;47.472;11.214;2022-07-29T11:46:12;1.85;;;1.00;;
25247;SDS011;13191;47.472;11.214;2022-07-29T11:48:42;3.78;;;1.50;;
25247;SDS011;13191;47.472;11.214;2022-07-29T11:51:09;1.90;;;1.23;;
25247;SDS011;13191;47.472;11.214;2022-07-29T11:53:36;3.40;;;1.23;;
25247;SDS011;13191;47.472;11.214;2022-07-29T11:56:04;1.90;;;1.10;;
25247;SDS011;13191;47.472;11.214;2022-07-29T11:58:33;6.45;;;1.30;;
25247;SDS011;13191;47.472;11.214;2022-07-29T12:01:00;1.80;;;1.30;;
25247;SDS011;13191;47.472;11.214;2022-07-29T12:03:26;2.80;;;1.65;;
25247;SDS011;13191;47.472;11.214;2022-07-29T12:05:53;3.20;;;1.30;;
25247;SDS011;13191;47.472;11.214;2022-07-29T12:08:20;4.15;;;1.63;;
25247;SDS011;13191;47.472;11.214;2022-07-29T12:10:48;2.47;;;1.48;;
25247;SDS011;13191;47.472;11.214;2022-07-29T12:13:17;4.40;;;1.33;;
25247;SDS011;13191;47.472;11.214;2022-07-29T12:15:56;2.42;;;1.40;;
25247;SDS011;13191;47.472;11.214;2022-07-29T12:18:23;2.05;;;1.27;;
25247;SDS011;13191;47.472;11.214;2022-07-29T12:20:55;2.85;;;1.40;;
25247;SDS011;13191;47.472;11.214;2022-07-29T12:23:22;4.10;;;1.38;;
25247;SDS011;13191;47.472;11.214;2022-07-29T12:25:48;2.90;;;1.58;;
25247;SDS011;13191;47.472;11.214;2022-07-29T12:28:14;3.60;;;1.33;;
25247;SDS011;13191;47.472;11.214;2022-07-29T12:30:47;2.10;;;1.20;;
25247;SDS011;13191;47.472;11.214;2022-07-29T12:33:24;2.42;;;1.35;;
25247;SDS011;13191;47.472;11.214;2022-07-29T12:35:54;3.13;;;1.20;;
25247;SDS011;13191;47.472;11.214;2022-07-29T12:38:25;4.35;;;1.38;;
25247;SDS011;13191;47.472;11.214;2022-07-29T12:40:51;5.65;;;1.40;;
25247;SDS011;13191;47.472;11.214;2022-07-29T12:43:19;2.20;;;1.35;;
25247;SDS011;13191;47.472;11.214;2022-07-29T12:45:49;2.40;;;1.38;;
25247;SDS011;13191;47.472;11.214;2022-07-29T12:48:16;1.52;;;1.05;;
25247;SDS011;13191;47.472;11.214;2022-07-29T13:00:26;5.68;;;1.90;;
25247;SDS011;13191;47.472;11.214;2022-07-29T13:02:56;2.33;;;1.48;;
25247;SDS011;13191;47.472;11.214;2022-07-29T13:05:22;2.33;;;1.47;;
25247;SDS011;13191;47.472;11.214;2022-07-29T13:07:49;4.03;;;2.28;;
25247;SDS011;13191;47.472;11.214;2022-07-29T13:10:18;2.90;;;1.65;;
25247;SDS011;13191;47.472;11.214;2022-07-29T13:16:04;6.35;;;1.90;;
25247;SDS011;13191;47.472;11.214;2022-07-29T13:18:33;3.63;;;1.42;;
25247;SDS011;13191;47.472;11.214;2022-07-29T13:21:16;3.10;;;1.35;;
25247;SDS011;13191;47.472;11.214;2022-07-29T13:23:41;7.40;;;1.80;;
25247;SDS011;13191;47.472;11.214;2022-07-29T13:26:08;5.82;;;1.80;;
25247;SDS011;13191;47.472;11.214;2022-07-29T13:28:34;2.30;;;1.60;;
25247;SDS011;13191;47.472;11.214;2022-07-29T13:31:00;3.80;;;1.58;;
25247;SDS011;13191;47.472;11.214;2022-07-29T13:33:26;5.28;;;1.52;;
25247;SDS011;13191;47.472;11.214;2022-07-29T13:35:52;4.63;;;1.75;;
25247;SDS011;13191;47.472;11.214;2022-07-29T13:38:17;2.13;;;1.50;;
25247;SDS011;13191;47.472;11.214;2022-07-29T13:40:43;3.00;;;1.52;;
25247;SDS011;13191;47.472;11.214;2022-07-29T13:43:09;2.50;;;1.35;;
25247;SDS011;13191;47.472;11.214;2022-07-29T13:45:35;7.32;;;1.75;;
25247;SDS011;13191;47.472;11.214;2022-07-29T13:48:01;2.60;;;1.50;;
25247;SDS011;13191;47.472;11.214;2022-07-29T13:50:26;2.00;;;1.15;;
25247;SDS011;13191;47.472;11.214;2022-07-29T13:52:52;2.80;;;1.65;;
25247;SDS011;13191;47.472;11.214;2022-07-29T13:55:18;4.18;;;1.55;;
25247;SDS011;13191;47.472;11.214;2022-07-29T13:57:43;2.63;;;1.35;;
25247;SDS011;13191;47.472;11.214;2022-07-29T14:00:09;2.63;;;1.52;;
25247;SDS011;13191;47.472;11.214;2022-07-29T14:02:35;3.60;;;1.70;;
25247;SDS011;13191;47.472;11.214;2022-07-29T14:05:03;7.57;;;1.60;;
25247;SDS011;13191;47.472;11.214;2022-07-29T14:07:30;2.60;;;1.58;;
25247;SDS011;13191;47.472;11.214;2022-07-29T14:09:55;6.10;;;1.83;;
25247;SDS011;13191;47.472;11.214;2022-07-29T14:12:21;7.13;;;1.98;;
25247;SDS011;13191;47.472;11.214;2022-07-29T14:14:47;3.97;;;1.55;;
25247;SDS011;13191;47.472;11.214;2022-07-29T14:17:13;5.97;;;2.10;;
25247;SDS011;13191;47.472;11.214;2022-07-29T14:19:39;6.72;;;1.58;;
25247;SDS011;13191;47.472;11.214;2022-07-29T14:22:07;4.20;;;1.63;;
25247;SDS011;13191;47.472;11.214;2022-07-29T14:24:33;2.22;;;1.33;;
25247;SDS011;13191;47.472;11.214;2022-07-29T14:27:00;4.25;;;1.65;;
25247;SDS011;13191;47.472;11.214;2022-07-29T14:29:26;2.67;;;1.48;;
25247;SDS011;13191;47.472;11.214;2022-07-29T14:31:52;3.15;;;1.70;;
25247;SDS011;13191;47.472;11.214;2022-07-29T14:34:18;2.92;;;1.40;;
25247;SDS011;13191;47.472;11.214;2022-07-29T14:36:44;6.25;;;1.60;;
25247;SDS011;13191;47.472;11.214;2022-07-29T14:39:09;4.40;;;1.40;;
25247;SDS011;13191;47.472;11.214;2022-07-29T14:41:38;8.50;;;2.50;;
25247;SDS011;13191;47.472;11.214;2022-07-29T14:44:07;3.55;;;1.40;;
25247;SDS011;13191;47.472;11.214;2022-07-29T14:46:33;4.05;;;1.38;;
25247;SDS011;13191;47.472;11.214;2022-07-29T14:48:58;3.13;;;1.23;;
25247;SDS011;13191;47.472;11.214;2022-07-29T14:51:24;3.60;;;1.55;;
25247;SDS011;13191;47.472;11.214;2022-07-29T14:53:59;6.50;;;1.40;;
25247;SDS011;13191;47.472;11.214;2022-07-29T14:56:51;2.55;;;1.15;;
25247;SDS011;13191;47.472;11.214;2022-07-29T14:59:20;3.92;;;1.10;;
25247;SDS011;13191;47.472;11.214;2022-07-29T15:01:51;3.13;;;1.33;;
25247;SDS011;13191;47.472;11.214;2022-07-29T15:04:16;2.13;;;0.98;;
25247;SDS011;13191;47.472;11.214;2022-07-29T15:06:42;2.00;;;1.00;;
25247;SDS011;13191;47.472;11.214;2022-07-29T15:09:08;2.85;;;1.20;;
25247;SDS011;13191;47.472;11.214;2022-07-29T15:11:33;9.38;;;1.23;;
25247;SDS011;13191;47.472;11.214;2022-07-29T15:13:59;8.50;;;1.42;;
25247;SDS011;13191;47.472;11.214;2022-07-29T15:16:24;3.65;;;1.45;;
25247;SDS011;13191;47.472;11.214;2022-07-29T15:18:50;5.25;;;1.88;;
25247;SDS011;13191;47.472;11.214;2022-07-29T15:21:15;2.60;;;1.15;;
25247;SDS011;13191;47.472;11.214;2022-07-29T15:23:41;2.13;;;1.25;;
25247;SDS011;13191;47.472;11.214;2022-07-29T15:26:07;4.68;;;1.45;;
25247;SDS011;13191;47.472;11.214;2022-07-29T15:28:32;3.08;;;1.40;;
25247;SDS011;13191;47.472;11.214;2022-07-29T15:30:58;6.03;;;1.23;;
25247;SDS011;13191;47.472;11.214;2022-07-29T15:33:23;1.35;;;0.77;;
25247;SDS011;13191;47.472;11.214;2022-07-29T15:35:50;2.38;;;1.10;;
25247;SDS011;13191;47.472;11.214;2022-07-29T15:38:16;5.72;;;1.15;;
25247;SDS011;13191;47.472;11.214;2022-07-29T15:40:41;2.85;;;1.13;;
25247;SDS011;13191;47.472;11.214;2022-07-29T15:43:08;3.28;;;1.13;;
25247;SDS011;13191;47.472;11.214;2022-07-29T15:45:35;2.38;;;0.95;;
25247;SDS011;13191;47.472;11.214;2022-07-29T15:48:02;1.67;;;1.08;;
25247;SDS011;13191;47.472;11.214;2022-07-29T15:50:29;3.53;;;1.42;;
25247;SDS011;13191;47.472;11.214;2022-07-29T15:52:54;2.63;;;1.10;;
25247;SDS011;13191;47.472;11.214;2022-07-29T15:55:20;2.30;;;1.38;;
25247;SDS011;13191;47.472;11.214;2022-07-29T15:57:46;1.98;;;1.02;;
25247;SDS011;13191;47.472;11.214;2022-07-29T16:56:24;2.35;;;1.30;;
25247;SDS011;13191;47.472;11.214;2022-07-29T16:58:49;1.98;;;0.80;;
25247;SDS011;13191;47.472;11.214;2022-07-29T17:01:15;2.88;;;1.13;;
25247;SDS011;13191;47.472;11.214;2022-07-29T17:03:41;2.50;;;1.13;;
25247;SDS011;13191;47.472;11.214;2022-07-29T17:06:26;2.13;;;1.40;;
25247;SDS011;13191;47.472;11.214;2022-07-29T17:08:52;3.72;;;1.17;;
25247;SDS011;13191;47.472;11.214;2022-07-29T17:11:18;3.67;;;1.23;;
25247;SDS011;13191;47.472;11.214;2022-07-29T17:13:43;2.45;;;1.40;;
25247;SDS011;13191;47.472;11.214;2022-07-29T17:16:09;1.70;;;1.05;;
25247;SDS011;13191;47.472;11.214;2022-07-29T17:18:34;1.55;;;0.80;;
25247;SDS011;13191;47.472;11.214;2022-07-29T17:21:00;1.80;;;1.15;;
25247;SDS011;13191;47.472;11.214;2022-07-29T17:23:25;4.82;;;1.23;;
25247;SDS011;13191;47.472;11.214;2022-07-29T17:25:51;1.77;;;1.20;;
25247;SDS011;13191;47.472;11.214;2022-07-29T17:28:17;2.03;;;1.23;;
25247;SDS011;13191;47.472;11.214;2022-07-29T17:30:42;1.50;;;0.93;;
25247;SDS011;13191;47.472;11.214;2022-07-29T17:33:08;2.00;;;1.15;;
25247;SDS011;13191;47.472;11.214;2022-07-29T17:35:33;2.40;;;1.00;;
25247;SDS011;13191;47.472;11.214;2022-07-29T17:38:18;2.35;;;1.00;;
25247;SDS011;13191;47.472;11.214;2022-07-29T17:40:43;1.95;;;0.95;;
25247;SDS011;13191;47.472;11.214;2022-07-29T17:43:09;1.55;;;0.88;;
25247;SDS011;13191;47.472;11.214;2022-07-29T17:45:34;2.03;;;1.13;;
25247;SDS011;13191;47.472;11.214;2022-07-29T17:48:00;1.80;;;1.02;;
25247;SDS011;13191;47.472;11.214;2022-07-29T17:50:25;5.63;;;1.20;;
25247;SDS011;13191;47.472;11.214;2022-07-29T17:52:51;1.50;;;0.95;;
25247;SDS011;13191;47.472;11.214;2022-07-29T17:55:16;3.58;;;1.00;;
25247;SDS011;13191;47.472;11.214;2022-07-29T17:57:42;1.40;;;0.90;;
25247;SDS011;13191;47.472;11.214;2022-07-29T18:00:07;4.15;;;0.98;;
25247;SDS011;13191;47.472;11.214;2022-07-29T18:02:33;1.73;;;0.90;;
25247;SDS011;13191;47.472;11.214;2022-07-29T18:05:01;2.42;;;1.02;;
25247;SDS011;13191;47.472;11.214;2022-07-29T18:07:26;1.73;;;0.98;;
25247;SDS011;13191;47.472;11.214;2022-07-29T18:09:52;2.13;;;0.90;;
25247;SDS011;13191;47.472;11.214;2022-07-29T18:12:18;1.48;;;1.00;;
25247;SDS011;13191;47.472;11.214;2022-07-29T18:14:43;1.40;;;0.70;;
25247;SDS011;13191;47.472;11.214;2022-07-29T18:17:09;3.60;;;1.15;;
25247;SDS011;13191;47.472;11.214;2022-07-29T18:19:34;2.08;;;0.98;;
25247;SDS011;13191;47.472;11.214;2022-07-29T18:22:00;2.00;;;0.93;;
25247;SDS011;13191;47.472;11.214;2022-07-29T18:24:25;1.40;;;0.90;;
25247;SDS011;13191;47.472;11.214;2022-07-29T18:26:53;5.22;;;0.93;;
25247;SDS011;13191;47.472;11.214;2022-07-29T18:29:18;6.47;;;0.95;;
25247;SDS011;13191;47.472;11.214;2022-07-29T18:31:44;1.63;;;0.88;;
25247;SDS011;13191;47.472;11.214;2022-07-29T18:34:10;1.65;;;0.82;;
25247;SDS011;13191;47.472;11.214;2022-07-29T18:36:35;3.38;;;0.70;;
25247;SDS011;13191;47.472;11.214;2022-07-29T18:39:01;1.30;;;0.90;;
25247;SDS011;13191;47.472;11.214;2022-07-29T18:41:27;3.28;;;0.80;;
25247;SDS011;13191;47.472;11.214;2022-07-29T18:43:53;1.42;;;0.80;;
25247;SDS011;13191;47.472;11.214;2022-07-29T18:46:18;3.15;;;0.90;;
25247;SDS011;13191;47.472;11.214;2022-07-29T18:48:44;1.42;;;0.80;;
25247;SDS011;13191;47.472;11.214;2022-07-29T18:51:09;1.20;;;0.60;;
25247;SDS011;13191;47.472;11.214;2022-07-29T18:53:35;2.05;;;0.70;;
25247;SDS011;13191;47.472;11.214;2022-07-29T18:56:01;2.22;;;0.90;;
25247;SDS011;13191;47.472;11.214;2022-07-29T18:58:27;1.67;;;1.02;;
25247;SDS011;13191;47.472;11.214;2022-07-29T19:00:53;1.13;;;0.70;;
25247;SDS011;13191;47.472;11.214;2022-07-29T19:03:18;1.13;;;0.73;;
25247;SDS011;13191;47.472;11.214;2022-07-29T19:05:44;2.03;;;1.17;;
25247;SDS011;13191;47.472;11.214;2022-07-29T19:08:09;1.33;;;0.80;;
25247;SDS011;13191;47.472;11.214;2022-07-29T19:10:35;3.42;;;1.10;;
25247;SDS011;13191;47.472;11.214;2022-07-29T19:13:00;4.38;;;1.13;;
25247;SDS011;13191;47.472;11.214;2022-07-29T19:15:26;2.10;;;1.10;;
25247;SDS011;13191;47.472;11.214;2022-07-29T19:17:51;1.80;;;1.10;;
25247;SDS011;13191;47.472;11.214;2022-07-29T19:20:17;6.82;;;1.35;;
25247;SDS011;13191;47.472;11.214;2022-07-29T19:22:42;2.35;;;1.00;;
25247;SDS011;13191;47.472;11.214;2022-07-29T19:25:08;1.33;;;0.90;;
25247;SDS011;13191;47.472;11.214;2022-07-29T19:27:34;1.67;;;1.00;;
25247;SDS011;13191;47.472;11.214;2022-07-29T19:29:59;1.70;;;1.08;;
25247;SDS011;13191;47.472;11.214;2022-07-29T19:32:27;1.73;;;1.10;;
25247;SDS011;13191;47.472;11.214;2022-07-29T19:34:52;2.90;;;1.17;;
25247;SDS011;13191;47.472;11.214;2022-07-29T19:37:36;2.67;;;1.00;;
25247;SDS011;13191;47.472;11.214;2022-07-29T19:40:02;1.25;;;0.77;;
25247;SDS011;13191;47.472;11.214;2022-07-29T19:42:28;3.63;;;1.02;;
25247;SDS011;13191;47.472;11.214;2022-07-29T19:44:54;2.72;;;0.90;;
25247;SDS011;13191;47.472;11.214;2022-07-29T19:47:19;1.67;;;0.95;;
25247;SDS011;13191;47.472;11.214;2022-07-29T19:49:45;1.80;;;0.90;;
25247;SDS011;13191;47.472;11.214;2022-07-29T19:52:10;1.17;;;0.70;;
25247;SDS011;13191;47.472;11.214;2022-07-29T19:54:36;3.05;;;0.93;;
25247;SDS011;13191;47.472;11.214;2022-07-29T19:57:02;3.15;;;1.15;;
25247;SDS011;13191;47.472;11.214;2022-07-29T19:59:27;1.50;;;0.90;;
25247;SDS011;13191;47.472;11.214;2022-07-29T20:01:53;2.35;;;1.08;;
25247;SDS011;13191;47.472;11.214;2022-07-29T20:04:18;1.60;;;0.80;;
25247;SDS011;13191;47.472;11.214;2022-07-29T20:06:44;1.40;;;0.85;;
25247;SDS011;13191;47.472;11.214;2022-07-29T20:09:10;3.65;;;1.00;;
25247;SDS011;13191;47.472;11.214;2022-07-29T20:11:35;1.95;;;1.13;;
25247;SDS011;13191;47.472;11.214;2022-07-29T20:14:02;3.13;;;1.60;;
25247;SDS011;13191;47.472;11.214;2022-07-29T20:16:30;2.60;;;1.52;;
25247;SDS011;13191;47.472;11.214;2022-07-29T20:18:56;3.55;;;1.75;;
25247;SDS011;13191;47.472;11.214;2022-07-29T20:21:22;1.63;;;1.08;;
25247;SDS011;13191;47.472;11.214;2022-07-29T20:23:49;1.70;;;0.77;;
25247;SDS011;13191;47.472;11.214;2022-07-29T20:26:14;1.63;;;1.08;;
25247;SDS011;13191;47.472;11.214;2022-07-29T20:28:41;1.65;;;1.00;;
25247;SDS011;13191;47.472;11.214;2022-07-29T20:31:06;2.97;;;1.27;;
25247;SDS011;13191;47.472;11.214;2022-07-29T20:33:32;2.03;;;1.17;;
25247;SDS011;13191;47.472;11.214;2022-07-29T20:35:58;2.03;;;1.13;;
25247;SDS011;13191;47.472;11.214;2022-07-29T20:38:23;3.20;;;1.10;;
25247;SDS011;13191;47.472;11.214;2022-07-29T20:40:49;1.95;;;1.20;;
25247;SDS011;13191;47.472;11.214;2022-07-29T20:43:14;1.92;;;1.20;;
25247;SDS011;13191;47.472;11.214;2022-07-29T20:45:40;2.95;;;1.63;;
25247;SDS011;13191;47.472;11.214;2022-07-29T20:48:05;3.10;;;1.83;;
25247;SDS011;13191;47.472;11.214;2022-07-29T20:50:31;2.72;;;1.48;;
25247;SDS011;13191;47.472;11.214;2022-07-29T20:52:57;3.63;;;1.10;;
25247;SDS011;13191;47.472;11.214;2022-07-29T20:55:22;2.25;;;1.15;;
25247;SDS011;13191;47.472;11.214;2022-07-29T20:57:48;1.48;;;0.80;;
25247;SDS011;13191;47.472;11.214;2022-07-29T21:00:14;2.35;;;1.30;;
25247;SDS011;13191;47.472;11.214;2022-07-29T21:02:39;1.67;;;0.90;;
25247;SDS011;13191;47.472;11.214;2022-07-29T21:05:05;4.30;;;1.52;;
25247;SDS011;13191;47.472;11.214;2022-07-29T21:07:31;1.50;;;0.85;;
25247;SDS011;13191;47.472;11.214;2022-07-29T21:09:57;1.08;;;0.68;;
25247;SDS011;13191;47.472;11.214;2022-07-29T21:12:22;1.63;;;0.80;;
25247;SDS011;13191;47.472;11.214;2022-07-29T21:14:48;2.72;;;1.00;;
25247;SDS011;13191;47.472;11.214;2022-07-29T21:17:14;2.10;;;1.10;;
25247;SDS011;13191;47.472;11.214;2022-07-29T21:19:40;1.25;;;0.68;;
25247;SDS011;13191;47.472;11.214;2022-07-29T21:22:07;2.63;;;0.90;;
25247;SDS011;13191;47.472;11.214;2022-07-29T21:24:33;4.85;;;1.25;;
25247;SDS011;13191;47.472;11.214;2022-07-29T21:26:58;3.03;;;1.10;;
25247;SDS011;13191;47.472;11.214;2022-07-29T21:29:42;1.50;;;0.85;;
25247;SDS011;13191;47.472;11.214;2022-07-29T21:32:10;2.53;;;1.08;;
25247;SDS011;13191;47.472;11.214;2022-07-29T21:34:36;2.75;;;0.80;;
25247;SDS011;13191;47.472;11.214;2022-07-29T21:37:01;2.50;;;0.95;;
25247;SDS011;13191;47.472;11.214;2022-07-29T21:39:27;1.95;;;0.90;;
25247;SDS011;13191;47.472;11.214;2022-07-29T21:41:53;1.70;;;0.82;;
25247;SDS011;13191;47.472;11.214;2022-07-29T21:44:18;1.67;;;0.80;;
25247;SDS011;13191;47.472;11.214;2022-07-29T21:46:45;1.35;;;0.80;;
25247;SDS011;13191;47.472;11.214;2022-07-29T21:49:11;1.27;;;0.70;;
25247;SDS011;13191;47.472;11.214;2022-07-29T21:51:36;2.53;;;1.15;;
25247;SDS011;13191;47.472;11.214;2022-07-29T21:54:02;0.90;;;0.60;;
25247;SDS011;13191;47.472;11.214;2022-07-29T21:56:28;2.00;;;0.73;;
25247;SDS011;13191;47.472;11.214;2022-07-29T21:58:54;0.75;;;0.50;;
25247;SDS011;13191;47.472;11.214;2022-07-29T22:01:20;0.95;;;0.60;;
25247;SDS011;13191;47.472;11.214;2022-07-29T22:03:46;3.10;;;0.80;;
25247;SDS011;13191;47.472;11.214;2022-07-29T22:06:11;1.27;;;0.80;;
25247;SDS011;13191;47.472;11.214;2022-07-29T22:08:37;1.27;;;0.85;;
25247;SDS011;13191;47.472;11.214;2022-07-29T22:11:04;1.52;;;0.90;;
25247;SDS011;13191;47.472;11.214;2022-07-29T22:13:29;3.25;;;0.63;;
25247;SDS011;13191;47.472;11.214;2022-07-29T22:15:55;1.52;;;0.90;;
25247;SDS011;13191;47.472;11.214;2022-07-29T22:18:21;1.42;;;0.70;;
25247;SDS011;13191;47.472;11.214;2022-07-29T22:20:47;1.48;;;0.90;;
25247;SDS011;13191;47.472;11.214;2022-07-29T22:23:13;1.50;;;0.80;;
25247;SDS011;13191;47.472;11.214;2022-07-29T22:25:39;2.70;;;1.00;;
25247;SDS011;13191;47.472;11.214;2022-07-29T22:28:04;1.73;;;0.80;;
25247;SDS011;13191;47.472;11.214;2022-07-29T22:30:30;1.50;;;0.80;;
25247;SDS011;13191;47.472;11.214;2022-07-29T22:32:55;1.00;;;0.52;;
25247;SDS011;13191;47.472;11.214;2022-07-29T22:35:21;1.48;;;0.77;;
25247;SDS011;13191;47.472;11.214;2022-07-29T22:37:46;1.27;;;0.70;;
25247;SDS011;13191;47.472;11.214;2022-07-29T22:40:12;1.92;;;0.98;;
25247;SDS011;13191;47.472;11.214;2022-07-29T22:42:37;1.77;;;0.75;;
25247;SDS011;13191;47.472;11.214;2022-07-29T22:45:03;3.40;;;0.90;;
25247;SDS011;13191;47.472;11.214;2022-07-29T22:47:29;1.50;;;0.80;;
25247;SDS011;13191;47.472;11.214;2022-07-29T22:49:54;2.50;;;1.10;;
25247;SDS011;13191;47.472;11.214;2022-07-29T22:52:20;0.95;;;0.60;;
25247;SDS011;13191;47.472;11.214;2022-07-29T22:54:46;2.05;;;0.93;;
25247;SDS011;13191;47.472;11.214;2022-07-29T22:57:11;2.00;;;0.65;;
25247;SDS011;13191;47.472;11.214;2022-07-29T22:59:37;3.42;;;0.77;;
25247;SDS011;13191;47.472;11.214;2022-07-29T23:02:02;1.00;;;0.63;;
25247;SDS011;13191;47.472;11.214;2022-07-29T23:04:28;1.08;;;0.70;;
25247;SDS011;13191;47.472;11.214;2022-07-29T23:06:53;2.00;;;1.02;;
25247;SDS011;13191;47.472;11.214;2022-07-29T23:09:19;1.55;;;0.80;;
25247;SDS011;13191;47.472;11.214;2022-07-29T23:11:45;17.50;;;0.93;;
25247;SDS011;13191;47.472;11.214;2022-07-29T23:14:11;3.45;;;1.08;;
25247;SDS011;13191;47.472;11.214;2022-07-29T23:16:36;1.83;;;0.80;;
25247;SDS011;13191;47.472;11.214;2022-07-29T23:19:02;4.05;;;1.00;;
25247;SDS011;13191;47.472;11.214;2022-07-29T23:21:27;2.25;;;1.27;;
25247;SDS011;13191;47.472;11.214;2022-07-29T23:23:53;1.77;;;0.80;;
25247;SDS011;13191;47.472;11.214;2022-07-29T23:26:18;0.98;;;0.60;;
25247;SDS011;13191;47.472;11.214;2022-07-29T23:28:44;0.95;;;0.60;;
25247;SDS011;13191;47.472;11.214;2022-07-29T23:31:10;5.07;;;0.90;;
25247;SDS011;13191;47.472;11.214;2022-07-29T23:33:37;2.05;;;1.00;;
25247;SDS011;13191;47.472;11.214;2022-07-29T23:36:03;1.38;;;0.90;;
25247;SDS011;13191;47.472;11.214;2022-07-29T23:38:28;1.40;;;0.77;;
25247;SDS011;13191;47.472;11.214;2022-07-29T23:40:54;2.28;;;1.10;;
25247;SDS011;13191;47.472;11.214;2022-07-29T23:43:20;1.33;;;0.80;;
25247;SDS011;13191;47.472;11.214;2022-07-29T23:45:45;1.00;;;0.68;;
25247;SDS011;13191;47.472;11.214;2022-07-29T23:48:11;3.65;;;0.73;;
25247;SDS011;13191;47.472;11.214;2022-07-29T23:50:36;4.43;;;0.98;;
25247;SDS011;13191;47.472;11.214;2022-07-29T23:53:02;1.58;;;0.70;;
25247;SDS011;13191;47.472;11.214;2022-07-29T23:55:27;1.65;;;0.95;;
25247;SDS011;13191;47.472;11.214;2022-07-29T23:57:53;1.33;;;0.60;;
